createdAt,value
2017-07-09T00:00:32.009Z,0
2017-07-09T00:01:12.530Z,0
2017-07-09T00:01:53.071Z,0
2017-07-09T00:02:33.617Z,0
2017-07-09T00:03:14.126Z,0
2017-07-09T00:03:54.644Z,0
2017-07-09T00:04:35.179Z,0
2017-07-09T00:05:15.701Z,0
2017-07-09T00:05:56.236Z,0
2017-07-09T00:06:36.782Z,0
2017-07-09T00:07:17.282Z,0
2017-07-09T00:07:57.808Z,0
2017-07-09T00:08:38.329Z,0
2017-07-09T00:09:18.895Z,0
2017-07-09T00:09:59.451Z,0
2017-07-09T00:10:39.976Z,0
2017-07-09T00:11:20.491Z,0
2017-07-09T00:12:01.015Z,0
2017-07-09T00:12:41.528Z,0
2017-07-09T00:13:22.077Z,0
2017-07-09T00:14:02.615Z,0
2017-07-09T00:14:43.133Z,0
2017-07-09T00:15:23.666Z,0
2017-07-09T00:16:04.235Z,0
2017-07-09T00:16:44.769Z,0
2017-07-09T00:17:25.300Z,0
2017-07-09T00:18:05.871Z,0
2017-07-09T00:18:46.403Z,0
2017-07-09T00:19:26.934Z,0
2017-07-09T00:20:07.438Z,0
2017-07-09T00:20:47.995Z,0
2017-07-09T00:21:28.466Z,0
2017-07-09T00:22:08.988Z,0
2017-07-09T00:22:49.488Z,0
2017-07-09T00:23:29.988Z,0
2017-07-09T00:24:10.495Z,0
2017-07-09T00:24:51.043Z,0
2017-07-09T00:25:31.557Z,0
2017-07-09T00:26:12.081Z,0
2017-07-09T00:26:52.607Z,0
2017-07-09T00:27:33.116Z,0
2017-07-09T00:28:13.656Z,0
2017-07-09T00:28:54.174Z,0
2017-07-09T00:29:34.733Z,0
2017-07-09T00:30:15.278Z,0
2017-07-09T00:30:55.814Z,0
2017-07-09T00:31:36.318Z,0
2017-07-09T00:32:16.845Z,0
2017-07-09T00:32:57.365Z,0
2017-07-09T00:33:37.890Z,0
2017-07-09T00:34:18.384Z,0
2017-07-09T00:34:58.899Z,0
2017-07-09T00:35:39.408Z,0
2017-07-09T00:36:19.890Z,0
2017-07-09T00:37:00.547Z,0
2017-07-09T00:37:41.103Z,0
2017-07-09T00:38:21.617Z,0
2017-07-09T00:39:02.128Z,0
2017-07-09T00:39:42.651Z,0
2017-07-09T00:40:23.150Z,0
2017-07-09T00:41:03.670Z,0
2017-07-09T00:41:44.224Z,0
2017-07-09T00:42:24.721Z,0
2017-07-09T00:43:05.252Z,0
2017-07-09T00:43:45.955Z,0
2017-07-09T00:44:26.467Z,0
2017-07-09T00:45:06.956Z,0
2017-07-09T00:45:47.463Z,0
2017-07-09T00:46:27.952Z,0
2017-07-09T00:47:08.448Z,0
2017-07-09T00:47:48.943Z,0
2017-07-09T00:48:29.458Z,0
2017-07-09T00:49:09.972Z,0
2017-07-09T00:49:50.529Z,0
2017-07-09T00:50:31.059Z,0
2017-07-09T00:51:11.576Z,0
2017-07-09T00:51:52.092Z,0
2017-07-09T00:52:32.614Z,0
2017-07-09T00:53:13.125Z,0
2017-07-09T00:53:53.636Z,0
2017-07-09T00:54:34.157Z,0
2017-07-09T00:55:14.639Z,0
2017-07-09T00:55:55.160Z,0
2017-07-09T00:56:35.647Z,0
2017-07-09T00:57:16.178Z,0
2017-07-09T00:57:56.694Z,0
2017-07-09T00:58:37.184Z,0
2017-07-09T00:59:17.707Z,0
2017-07-09T00:59:58.253Z,0
2017-07-09T01:00:38.763Z,0
2017-07-09T01:01:19.301Z,0
2017-07-09T01:01:59.914Z,0
2017-07-09T01:02:40.431Z,0
2017-07-09T01:03:20.952Z,0
2017-07-09T01:04:01.529Z,0
2017-07-09T01:04:42.051Z,0
2017-07-09T01:05:22.543Z,0
2017-07-09T01:06:03.052Z,0
2017-07-09T01:06:43.580Z,0
2017-07-09T01:07:24.116Z,0
2017-07-09T01:08:04.656Z,0
2017-07-09T01:08:45.169Z,0
2017-07-09T01:09:25.701Z,0
2017-07-09T01:10:06.229Z,0
2017-07-09T01:10:46.783Z,0
2017-07-09T01:11:27.291Z,0
2017-07-09T01:12:07.813Z,0
2017-07-09T01:12:48.347Z,0
2017-07-09T01:13:28.889Z,0
2017-07-09T01:14:09.403Z,0
2017-07-09T01:14:49.932Z,0
2017-07-09T01:15:30.453Z,0
2017-07-09T01:16:10.986Z,0
2017-07-09T01:16:51.537Z,0
2017-07-09T01:17:32.085Z,0
2017-07-09T01:18:12.602Z,0
2017-07-09T01:18:53.129Z,0
2017-07-09T01:19:33.632Z,0
2017-07-09T01:20:14.155Z,0
2017-07-09T01:20:54.687Z,0
2017-07-09T01:21:35.193Z,0
2017-07-09T01:22:15.706Z,0
2017-07-09T01:22:56.224Z,0
2017-07-09T01:23:36.743Z,0
2017-07-09T01:24:17.408Z,0
2017-07-09T01:24:57.965Z,0
2017-07-09T01:25:38.526Z,0
2017-07-09T01:26:19.061Z,0
2017-07-09T01:26:59.542Z,0
2017-07-09T01:27:40.058Z,0
2017-07-09T01:28:20.571Z,0
2017-07-09T01:29:01.073Z,0
2017-07-09T01:29:41.602Z,0
2017-07-09T01:30:22.127Z,0
2017-07-09T01:31:02.662Z,0
2017-07-09T01:31:43.192Z,0
2017-07-09T01:32:23.707Z,0
2017-07-09T01:33:04.223Z,0
2017-07-09T01:33:44.753Z,0
2017-07-09T01:34:25.268Z,0
2017-07-09T01:35:05.793Z,0
2017-07-09T01:35:46.312Z,0
2017-07-09T01:36:26.847Z,0
2017-07-09T01:37:07.368Z,0
2017-07-09T01:37:47.896Z,0
2017-07-09T01:38:28.416Z,0
2017-07-09T01:39:08.932Z,0
2017-07-09T01:39:49.457Z,0
2017-07-09T01:40:29.981Z,0
2017-07-09T01:41:11.138Z,0
2017-07-09T01:41:51.694Z,0
2017-07-09T01:42:32.196Z,0
2017-07-09T01:43:12.733Z,0
2017-07-09T01:43:53.252Z,0
2017-07-09T01:44:33.772Z,0
2017-07-09T01:45:14.286Z,0
2017-07-09T01:45:54.796Z,0
2017-07-09T01:46:35.324Z,0
2017-07-09T01:47:15.869Z,0
2017-07-09T01:47:56.394Z,0
2017-07-09T01:48:36.926Z,0
2017-07-09T01:49:17.447Z,0
2017-07-09T01:49:57.966Z,0
2017-07-09T01:50:38.524Z,0
2017-07-09T01:51:19.049Z,0
2017-07-09T01:51:59.554Z,0
2017-07-09T01:52:40.066Z,0
2017-07-09T01:53:20.583Z,0
2017-07-09T01:54:01.092Z,0
2017-07-09T01:54:41.618Z,0
2017-07-09T01:55:22.130Z,0
2017-07-09T01:56:02.638Z,0
2017-07-09T01:56:43.183Z,0
2017-07-09T01:57:23.683Z,0
2017-07-09T01:58:04.152Z,0
2017-07-09T01:58:44.641Z,0
2017-07-09T01:59:25.153Z,0
2017-07-09T02:00:05.645Z,0
2017-07-09T02:00:46.158Z,0
2017-07-09T02:01:26.646Z,0
2017-07-09T02:02:07.146Z,0
2017-07-09T02:02:47.688Z,0
2017-07-09T02:03:28.141Z,0
2017-07-09T02:04:08.670Z,0
2017-07-09T02:04:49.194Z,0
2017-07-09T02:05:29.731Z,0
2017-07-09T02:06:10.276Z,0
2017-07-09T02:06:50.850Z,0
2017-07-09T02:07:31.383Z,0
2017-07-09T02:08:11.902Z,0
2017-07-09T02:08:52.537Z,0
2017-07-09T02:09:32.992Z,0
2017-07-09T02:10:13.516Z,0
2017-07-09T02:10:54.033Z,0
2017-07-09T02:11:34.590Z,0
2017-07-09T02:12:15.111Z,0
2017-07-09T02:12:55.626Z,0
2017-07-09T02:13:36.146Z,0
2017-07-09T02:14:16.660Z,0
2017-07-09T02:14:57.185Z,0
2017-07-09T02:15:37.716Z,0
2017-07-09T02:16:18.233Z,0
2017-07-09T02:16:58.754Z,0
2017-07-09T02:17:39.378Z,0
2017-07-09T02:18:19.833Z,0
2017-07-09T02:19:00.369Z,0
2017-07-09T02:19:40.895Z,0
2017-07-09T02:20:21.384Z,0
2017-07-09T02:21:02.004Z,0
2017-07-09T02:21:42.531Z,0
2017-07-09T02:22:23.073Z,0
2017-07-09T02:23:03.563Z,0
2017-07-09T02:23:44.078Z,0
2017-07-09T02:24:24.605Z,0
2017-07-09T02:25:05.107Z,0
2017-07-09T02:25:45.644Z,0
2017-07-09T02:26:26.165Z,0
2017-07-09T02:27:06.683Z,0
2017-07-09T02:27:47.205Z,0
2017-07-09T02:28:27.736Z,0
2017-07-09T02:29:08.269Z,0
2017-07-09T02:29:48.794Z,0
2017-07-09T02:30:29.453Z,0
2017-07-09T02:31:09.837Z,0
2017-07-09T02:31:50.467Z,0
2017-07-09T02:32:30.994Z,0
2017-07-09T02:33:11.515Z,0
2017-07-09T02:33:52.088Z,0
2017-07-09T02:34:32.617Z,0
2017-07-09T02:35:13.169Z,0
2017-07-09T02:35:53.696Z,0
2017-07-09T02:36:34.215Z,0
2017-07-09T02:37:14.713Z,0
2017-07-09T02:37:55.238Z,0
2017-07-09T02:38:35.805Z,0
2017-07-09T02:39:16.342Z,0
2017-07-09T02:39:56.845Z,0
2017-07-09T02:40:37.356Z,0
2017-07-09T02:41:17.879Z,0
2017-07-09T02:43:51.517Z,0
2017-07-09T02:44:32.020Z,0
2017-07-09T02:45:12.520Z,0
2017-07-09T02:45:53.030Z,0
2017-07-09T02:46:33.552Z,0
2017-07-09T02:47:14.073Z,0
2017-07-09T02:47:54.571Z,0
2017-07-09T02:48:35.105Z,0
2017-07-09T02:49:15.609Z,0
2017-07-09T02:49:56.178Z,0
2017-07-09T02:50:36.705Z,0
2017-07-09T02:51:17.220Z,0
2017-07-09T02:51:57.747Z,0
2017-07-09T02:52:38.279Z,0
2017-07-09T02:53:18.802Z,0
2017-07-09T02:53:59.297Z,0
2017-07-09T02:54:39.810Z,0
2017-07-09T02:55:20.347Z,0
2017-07-09T02:56:00.843Z,0
2017-07-09T02:56:41.362Z,0
2017-07-09T02:57:21.903Z,0
2017-07-09T02:58:02.424Z,0
2017-07-09T02:58:42.910Z,0
2017-07-09T02:59:23.424Z,0
2017-07-09T03:00:03.947Z,0
2017-07-09T03:00:44.478Z,0
2017-07-09T03:01:24.998Z,0
2017-07-09T03:02:05.497Z,0
2017-07-09T03:02:46.014Z,0
2017-07-09T03:03:26.546Z,0
2017-07-09T03:04:07.061Z,0
2017-07-09T03:04:47.566Z,0
2017-07-09T03:05:28.095Z,0
2017-07-09T03:06:08.616Z,0
2017-07-09T03:06:49.162Z,0
2017-07-09T03:07:29.801Z,0
2017-07-09T03:08:10.305Z,0
2017-07-09T03:08:50.806Z,0
2017-07-09T03:09:31.364Z,0
2017-07-09T03:10:11.819Z,0
2017-07-09T03:10:52.344Z,0
2017-07-09T03:11:32.865Z,0
2017-07-09T03:12:13.428Z,0
2017-07-09T03:12:53.844Z,0
2017-07-09T03:13:34.358Z,0
2017-07-09T03:14:14.863Z,0
2017-07-09T03:14:55.361Z,0
2017-07-09T03:15:35.879Z,0
2017-07-09T03:16:16.392Z,0
2017-07-09T03:16:56.919Z,0
2017-07-09T03:17:37.496Z,0
2017-07-09T03:18:18.000Z,0
2017-07-09T03:18:58.519Z,0
2017-07-09T03:19:39.042Z,0
2017-07-09T03:20:19.568Z,5
2017-07-09T03:21:00.106Z,5
2017-07-09T03:21:40.594Z,5
2017-07-09T03:22:21.100Z,5
2017-07-09T03:23:01.629Z,5
2017-07-09T03:23:42.135Z,5
2017-07-09T03:24:22.653Z,5
2017-07-09T03:25:03.153Z,5
2017-07-09T03:27:16.432Z,10
2017-07-09T03:27:56.967Z,10
2017-07-09T03:28:37.486Z,10
2017-07-09T03:29:18.015Z,10
2017-07-09T03:29:58.526Z,10
2017-07-09T03:30:39.033Z,10
2017-07-09T03:31:19.556Z,10
2017-07-09T03:32:00.053Z,10
2017-07-09T03:32:40.534Z,10
2017-07-09T03:33:21.040Z,10
2017-07-09T03:34:01.541Z,10
2017-07-09T03:34:42.058Z,5
2017-07-09T03:35:22.585Z,5
2017-07-09T03:36:03.130Z,5
2017-07-09T03:36:43.654Z,5
2017-07-09T03:37:24.167Z,5
2017-07-09T03:38:04.694Z,5
2017-07-09T03:38:45.212Z,5
2017-07-09T03:39:25.762Z,10
2017-07-09T03:40:06.251Z,10
2017-07-09T03:40:46.736Z,10
2017-07-09T03:41:27.277Z,10
2017-07-09T03:42:07.781Z,10
2017-07-09T03:42:48.335Z,10
2017-07-09T03:43:28.855Z,10
2017-07-09T03:44:09.354Z,15
2017-07-09T03:44:49.893Z,15
2017-07-09T03:45:30.418Z,15
2017-07-09T03:46:10.920Z,15
2017-07-09T03:46:51.443Z,15
2017-07-09T03:47:31.955Z,20
2017-07-09T03:48:12.467Z,20
2017-07-09T03:48:53.005Z,20
2017-07-09T03:49:33.539Z,20
2017-07-09T03:52:02.065Z,20
2017-07-09T03:52:42.587Z,20
2017-07-09T03:53:23.101Z,20
2017-07-09T03:54:03.631Z,20
2017-07-09T03:54:44.202Z,20
2017-07-09T03:55:24.751Z,20
2017-07-09T03:56:05.252Z,20
2017-07-09T03:56:45.759Z,20
2017-07-09T03:57:26.295Z,20
2017-07-09T03:58:06.824Z,20
2017-07-09T03:58:47.337Z,20
2017-07-09T03:59:27.845Z,20
2017-07-09T04:00:08.360Z,20
2017-07-09T04:00:48.893Z,20
2017-07-09T04:01:29.495Z,20
2017-07-09T04:02:10.055Z,20
2017-07-09T04:02:50.558Z,20
2017-07-09T04:03:31.086Z,20
2017-07-09T04:04:11.596Z,20
2017-07-09T04:04:52.104Z,20
2017-07-09T04:05:32.621Z,20
2017-07-09T04:06:13.153Z,20
2017-07-09T04:06:53.696Z,20
2017-07-09T04:07:34.201Z,20
2017-07-09T04:08:14.734Z,20
2017-07-09T04:08:55.261Z,20
2017-07-09T04:09:35.776Z,20
2017-07-09T04:10:16.313Z,20
2017-07-09T04:10:56.839Z,20
2017-07-09T04:11:37.365Z,15
2017-07-09T04:12:17.887Z,15
2017-07-09T04:12:58.411Z,15
2017-07-09T04:13:38.924Z,15
2017-07-09T04:14:19.460Z,15
2017-07-09T04:14:59.968Z,15
2017-07-09T04:15:40.506Z,15
2017-07-09T04:16:21.021Z,15
2017-07-09T04:17:01.559Z,15
2017-07-09T04:17:42.111Z,15
2017-07-09T04:18:22.595Z,15
2017-07-09T04:19:03.126Z,15
2017-07-09T04:19:43.676Z,15
2017-07-09T04:20:24.215Z,15
2017-07-09T04:21:04.706Z,15
2017-07-09T04:21:45.230Z,15
2017-07-09T04:22:25.769Z,15
2017-07-09T04:23:06.327Z,15
2017-07-09T04:23:46.815Z,15
2017-07-09T04:24:27.355Z,15
2017-07-09T04:25:07.872Z,15
2017-07-09T04:25:48.427Z,15
2017-07-09T04:26:28.930Z,15
2017-07-09T04:27:09.446Z,20
2017-07-09T04:27:49.956Z,20
2017-07-09T04:28:30.485Z,20
2017-07-09T04:29:11.100Z,20
2017-07-09T04:29:51.643Z,20
2017-07-09T04:30:32.178Z,20
2017-07-09T04:31:12.667Z,20
2017-07-09T04:31:53.178Z,20
2017-07-09T04:32:33.698Z,20
2017-07-09T04:33:14.215Z,20
2017-07-09T04:33:54.742Z,20
2017-07-09T04:34:35.272Z,20
2017-07-09T04:35:15.773Z,20
2017-07-09T04:35:56.290Z,20
2017-07-09T04:36:36.869Z,20
2017-07-09T04:37:17.383Z,20
2017-07-09T04:37:57.920Z,20
2017-07-09T04:38:38.449Z,20
2017-07-09T04:39:18.970Z,20
2017-07-09T04:39:59.498Z,20
2017-07-09T04:40:40.036Z,20
2017-07-09T04:41:20.568Z,20
2017-07-09T04:42:01.070Z,20
2017-07-09T04:42:41.640Z,20
2017-07-09T04:43:22.169Z,20
2017-07-09T04:44:02.689Z,20
2017-07-09T04:44:43.232Z,20
2017-07-09T04:47:01.644Z,20
2017-07-09T04:47:42.161Z,25
2017-07-09T04:48:22.677Z,25
2017-07-09T04:49:03.189Z,25
2017-07-09T04:49:43.712Z,25
2017-07-09T04:50:24.224Z,25
2017-07-09T04:51:04.731Z,30
2017-07-09T04:51:45.261Z,30
2017-07-09T04:52:25.780Z,30
2017-07-09T04:53:06.295Z,30
2017-07-09T04:53:46.806Z,30
2017-07-09T04:54:27.323Z,30
2017-07-09T04:55:07.856Z,30
2017-07-09T04:55:48.365Z,30
2017-07-09T04:56:28.889Z,30
2017-07-09T04:57:09.454Z,30
2017-07-09T04:57:49.959Z,30
2017-07-09T04:58:30.465Z,30
2017-07-09T04:59:10.963Z,30
2017-07-09T04:59:51.486Z,30
2017-07-09T05:00:32.011Z,30
2017-07-09T05:01:12.605Z,30
2017-07-09T05:01:53.072Z,30
2017-07-09T05:02:34.375Z,30
2017-07-09T05:03:14.109Z,30
2017-07-09T05:03:54.625Z,30
2017-07-09T05:04:35.128Z,30
2017-07-09T05:05:15.677Z,30
2017-07-09T05:05:56.175Z,30
2017-07-09T05:06:36.676Z,30
2017-07-09T05:07:17.204Z,30
2017-07-09T05:07:57.778Z,30
2017-07-09T05:10:27.361Z,35
2017-07-09T05:11:07.870Z,35
2017-07-09T05:11:48.359Z,35
2017-07-09T05:12:28.893Z,40
2017-07-09T05:13:09.417Z,40
2017-07-09T05:13:49.937Z,45
2017-07-09T05:14:30.647Z,45
2017-07-09T05:15:10.951Z,50
2017-07-09T05:15:51.481Z,50
2017-07-09T05:16:31.989Z,50
2017-07-09T05:17:12.510Z,55
2017-07-09T05:17:53.070Z,65
2017-07-09T05:18:33.579Z,65
2017-07-09T05:19:14.129Z,70
2017-07-09T05:19:54.656Z,80
2017-07-09T05:20:35.179Z,85
2017-07-09T05:21:15.680Z,90
2017-07-09T05:21:56.210Z,95
2017-07-09T05:22:36.744Z,100
2017-07-09T05:23:17.247Z,105
2017-07-09T05:23:57.762Z,105
2017-07-09T05:24:38.324Z,105
2017-07-09T05:25:18.833Z,105
2017-07-09T05:25:59.350Z,110
2017-07-09T05:26:39.852Z,115
2017-07-09T05:27:20.361Z,115
2017-07-09T05:28:00.872Z,120
2017-07-09T05:28:41.381Z,125
2017-07-09T05:29:21.885Z,130
2017-07-09T05:30:02.432Z,135
2017-07-09T05:30:42.953Z,140
2017-07-09T05:31:23.466Z,150
2017-07-09T05:32:04.017Z,155
2017-07-09T05:32:44.538Z,155
2017-07-09T05:33:25.074Z,160
2017-07-09T05:34:05.588Z,170
2017-07-09T05:34:46.101Z,170
2017-07-09T05:35:26.636Z,175
2017-07-09T05:36:07.164Z,170
2017-07-09T05:36:47.681Z,160
2017-07-09T05:37:28.266Z,150
2017-07-09T05:38:08.771Z,140
2017-07-09T05:40:27.163Z,95
2017-07-09T05:41:07.726Z,90
2017-07-09T05:41:48.262Z,80
2017-07-09T05:42:28.785Z,70
2017-07-09T05:43:09.312Z,65
2017-07-09T05:43:49.824Z,60
2017-07-09T05:44:30.350Z,60
2017-07-09T05:45:10.857Z,55
2017-07-09T05:45:51.361Z,55
2017-07-09T05:46:31.896Z,55
2017-07-09T05:47:12.385Z,55
2017-07-09T05:47:52.908Z,55
2017-07-09T05:48:33.428Z,55
2017-07-09T05:49:13.951Z,55
2017-07-09T05:49:54.487Z,55
2017-07-09T05:50:35.012Z,55
2017-07-09T05:51:15.564Z,55
2017-07-09T05:51:56.059Z,55
2017-07-09T05:52:36.561Z,55
2017-07-09T05:53:17.078Z,55
2017-07-09T05:53:57.758Z,50
2017-07-09T05:54:38.284Z,50
2017-07-09T05:55:18.780Z,50
2017-07-09T05:55:59.325Z,50
2017-07-09T05:56:39.876Z,50
2017-07-09T05:57:20.435Z,50
2017-07-09T05:59:33.746Z,50
2017-07-09T06:00:14.261Z,45
2017-07-09T06:00:54.871Z,45
2017-07-09T06:01:35.338Z,45
2017-07-09T06:02:15.862Z,40
2017-07-09T06:02:56.388Z,40
2017-07-09T06:03:36.891Z,40
2017-07-09T06:04:17.413Z,40
2017-07-09T06:04:57.932Z,40
2017-07-09T06:05:38.434Z,40
2017-07-09T06:06:18.959Z,40
2017-07-09T06:06:59.482Z,40
2017-07-09T06:07:39.987Z,45
2017-07-09T06:09:58.404Z,50
2017-07-09T06:10:39.022Z,50
2017-07-09T06:11:19.521Z,55
2017-07-09T06:12:00.039Z,60
2017-07-09T06:12:40.574Z,65
2017-07-09T06:13:21.108Z,65
2017-07-09T06:14:01.607Z,70
2017-07-09T06:14:42.125Z,75
2017-07-09T06:15:22.652Z,80
2017-07-09T06:16:03.304Z,85
2017-07-09T06:16:43.800Z,90
2017-07-09T06:17:24.347Z,95
2017-07-09T06:18:04.867Z,95
2017-07-09T06:18:45.450Z,95
2017-07-09T06:19:25.986Z,95
2017-07-09T06:20:06.513Z,95
2017-07-09T06:20:47.004Z,95
2017-07-09T06:21:27.520Z,95
2017-07-09T06:22:08.039Z,95
2017-07-09T06:22:48.544Z,95
2017-07-09T06:23:29.098Z,95
2017-07-09T06:24:09.642Z,90
2017-07-09T06:24:50.151Z,90
2017-07-09T06:25:30.680Z,90
2017-07-09T06:26:11.204Z,85
2017-07-09T06:26:51.711Z,85
2017-07-09T06:27:32.230Z,85
2017-07-09T06:28:12.770Z,90
2017-07-09T06:28:53.298Z,90
2017-07-09T06:29:33.811Z,90
2017-07-09T06:30:14.320Z,95
2017-07-09T06:30:54.904Z,100
2017-07-09T06:31:35.365Z,100
2017-07-09T06:32:15.881Z,105
2017-07-09T06:32:56.417Z,105
2017-07-09T06:33:37.101Z,105
2017-07-09T06:34:17.618Z,105
2017-07-09T06:34:58.160Z,105
2017-07-09T06:35:38.652Z,105
2017-07-09T06:36:19.178Z,100
2017-07-09T06:36:59.688Z,100
2017-07-09T06:37:40.209Z,95
2017-07-09T06:38:20.751Z,95
2017-07-09T06:39:01.276Z,95
2017-07-09T06:39:41.802Z,95
2017-07-09T06:40:22.329Z,95
2017-07-09T06:41:02.847Z,95
2017-07-09T06:41:43.333Z,95
2017-07-09T06:42:23.874Z,95
2017-07-09T06:43:04.384Z,95
2017-07-09T06:43:44.907Z,95
2017-07-09T06:44:25.589Z,95
2017-07-09T06:45:06.836Z,95
2017-07-09T06:45:47.300Z,95
2017-07-09T06:46:28.660Z,95
2017-07-09T06:47:09.184Z,100
2017-07-09T06:47:49.742Z,100
2017-07-09T06:48:30.280Z,100
2017-07-09T06:49:10.793Z,100
2017-07-09T06:49:51.354Z,95
2017-07-09T06:50:31.818Z,95
2017-07-09T06:51:12.337Z,95
2017-07-09T06:51:52.860Z,90
2017-07-09T06:52:33.371Z,90
2017-07-09T06:53:13.898Z,85
2017-07-09T06:53:54.436Z,85
2017-07-09T06:54:34.957Z,85
2017-07-09T06:55:15.456Z,85
2017-07-09T06:55:56.022Z,85
2017-07-09T06:56:36.664Z,85
2017-07-09T06:57:17.178Z,85
2017-07-09T06:57:57.779Z,90
2017-07-09T06:58:38.284Z,90
2017-07-09T06:59:18.820Z,95
2017-07-09T06:59:59.347Z,95
2017-07-09T07:00:39.880Z,95
2017-07-09T07:01:20.391Z,100
2017-07-09T07:02:00.861Z,105
2017-07-09T07:02:41.366Z,110
2017-07-09T07:03:21.859Z,115
2017-07-09T07:04:02.392Z,120
2017-07-09T07:04:42.884Z,130
2017-07-09T07:05:23.450Z,130
2017-07-09T07:06:03.913Z,135
2017-07-09T07:06:44.679Z,135
2017-07-09T07:07:25.702Z,145
2017-07-09T07:08:06.225Z,140
2017-07-09T07:08:46.800Z,150
2017-07-09T07:09:27.325Z,155
2017-07-09T07:10:07.881Z,160
2017-07-09T07:10:48.409Z,165
2017-07-09T07:11:28.884Z,175
2017-07-09T07:12:09.396Z,185
2017-07-09T07:12:49.907Z,195
2017-07-09T07:13:30.439Z,205
2017-07-09T07:14:11.000Z,220
2017-07-09T07:14:51.516Z,225
2017-07-09T07:15:32.042Z,235
2017-07-09T07:16:12.575Z,245
2017-07-09T07:16:53.104Z,250
2017-07-09T07:17:33.618Z,260
2017-07-09T07:18:14.140Z,260
2017-07-09T07:18:54.673Z,260
2017-07-09T07:19:35.169Z,255
2017-07-09T07:20:15.667Z,250
2017-07-09T07:20:56.188Z,245
2017-07-09T07:21:36.726Z,235
2017-07-09T07:22:17.247Z,225
2017-07-09T07:22:57.768Z,215
2017-07-09T07:23:38.298Z,205
2017-07-09T07:24:18.820Z,200
2017-07-09T07:24:59.331Z,190
2017-07-09T07:25:39.839Z,180
2017-07-09T07:26:20.358Z,180
2017-07-09T07:27:00.865Z,195
2017-07-09T07:27:41.388Z,170
2017-07-09T07:28:21.920Z,155
2017-07-09T07:29:02.454Z,150
2017-07-09T07:29:42.977Z,150
2017-07-09T07:30:23.493Z,145
2017-07-09T07:31:04.043Z,140
2017-07-09T07:31:44.560Z,140
2017-07-09T07:32:25.076Z,135
2017-07-09T07:33:05.575Z,130
2017-07-09T07:33:46.076Z,130
2017-07-09T07:34:26.589Z,125
2017-07-09T07:35:07.126Z,125
2017-07-09T07:35:47.635Z,130
2017-07-09T07:36:28.201Z,130
2017-07-09T07:37:08.721Z,135
2017-07-09T07:37:49.241Z,140
2017-07-09T07:38:29.756Z,145
2017-07-09T07:39:10.299Z,155
2017-07-09T07:39:50.846Z,160
2017-07-09T07:40:31.398Z,165
2017-07-09T07:41:11.933Z,175
2017-07-09T07:41:52.475Z,185
2017-07-09T07:42:32.992Z,195
2017-07-09T07:43:13.518Z,210
2017-07-09T07:43:54.050Z,225
2017-07-09T07:44:34.607Z,235
2017-07-09T07:45:15.139Z,250
2017-07-09T07:45:55.663Z,260
2017-07-09T07:46:36.191Z,285
2017-07-09T07:47:16.711Z,315
2017-07-09T07:47:57.236Z,280
2017-07-09T07:48:37.758Z,275
2017-07-09T07:49:18.277Z,275
2017-07-09T07:49:58.871Z,275
2017-07-09T07:50:39.408Z,270
2017-07-09T07:51:19.988Z,265
2017-07-09T07:52:00.523Z,255
2017-07-09T07:52:41.059Z,245
2017-07-09T07:53:21.686Z,235
2017-07-09T07:54:02.119Z,230
2017-07-09T07:54:42.648Z,220
2017-07-09T07:55:23.182Z,215
2017-07-09T07:56:03.717Z,215
2017-07-09T07:56:44.249Z,215
2017-07-09T07:57:24.786Z,295
2017-07-09T07:58:05.311Z,275
2017-07-09T07:58:45.845Z,270
2017-07-09T07:59:26.386Z,260
2017-07-09T08:00:06.915Z,255
2017-07-09T08:00:47.456Z,255
2017-07-09T08:01:27.993Z,255
2017-07-09T08:02:08.532Z,275
2017-07-09T08:02:49.094Z,330
2017-07-09T08:03:29.640Z,305
2017-07-09T08:04:10.159Z,345
2017-07-09T08:04:50.697Z,350
2017-07-09T08:05:31.209Z,350
2017-07-09T08:06:11.744Z,355
2017-07-09T08:06:52.293Z,295
2017-07-09T08:07:32.815Z,280
2017-07-09T08:08:13.334Z,260
2017-07-09T08:08:53.862Z,245
2017-07-09T08:09:34.405Z,240
2017-07-09T08:10:14.933Z,240
2017-07-09T08:10:55.462Z,240
2017-07-09T08:11:35.993Z,230
2017-07-09T08:12:16.526Z,230
2017-07-09T08:12:57.046Z,225
2017-07-09T08:13:37.581Z,225
2017-07-09T08:14:18.128Z,225
2017-07-09T08:14:58.651Z,220
2017-07-09T08:15:39.184Z,225
2017-07-09T08:16:19.722Z,220
2017-07-09T08:17:00.251Z,230
2017-07-09T08:17:40.785Z,250
2017-07-09T08:18:21.317Z,245
2017-07-09T08:19:01.831Z,270
2017-07-09T08:19:42.367Z,265
2017-07-09T08:20:22.894Z,265
2017-07-09T08:21:03.439Z,285
2017-07-09T08:21:43.970Z,305
2017-07-09T08:22:24.489Z,300
2017-07-09T08:23:05.005Z,310
2017-07-09T08:23:45.537Z,305
2017-07-09T08:24:26.078Z,315
2017-07-09T08:25:06.632Z,310
2017-07-09T08:25:47.145Z,300
2017-07-09T08:26:27.688Z,245
2017-07-09T08:27:08.205Z,225
2017-07-09T08:27:48.746Z,225
2017-07-09T08:28:29.277Z,230
2017-07-09T08:29:09.812Z,200
2017-07-09T08:29:50.348Z,210
2017-07-09T08:30:30.875Z,220
2017-07-09T08:31:11.428Z,205
2017-07-09T08:31:51.967Z,235
2017-07-09T08:32:32.510Z,230
2017-07-09T08:33:13.057Z,235
2017-07-09T08:33:53.802Z,230
2017-07-09T08:34:34.350Z,225
2017-07-09T08:35:14.888Z,225
2017-07-09T08:35:55.410Z,225
2017-07-09T08:36:35.955Z,220
2017-07-09T08:37:16.490Z,220
2017-07-09T08:37:57.049Z,220
2017-07-09T08:38:37.574Z,215
2017-07-09T08:39:18.105Z,215
2017-07-09T08:39:58.675Z,190
2017-07-09T08:40:39.153Z,185
2017-07-09T08:41:19.684Z,185
2017-07-09T08:42:00.251Z,185
2017-07-09T08:42:40.847Z,185
2017-07-09T08:43:21.377Z,195
2017-07-09T08:44:01.907Z,200
2017-07-09T08:44:42.449Z,220
2017-07-09T08:45:22.979Z,230
2017-07-09T08:46:03.511Z,240
2017-07-09T08:46:44.052Z,240
2017-07-09T08:47:24.580Z,235
2017-07-09T08:48:05.118Z,230
2017-07-09T08:48:45.645Z,230
2017-07-09T08:49:26.184Z,230
2017-07-09T08:50:06.709Z,230
2017-07-09T08:50:47.236Z,235
2017-07-09T08:51:27.747Z,235
2017-07-09T08:52:08.294Z,230
2017-07-09T08:52:48.841Z,230
2017-07-09T08:53:29.373Z,230
2017-07-09T08:54:09.895Z,230
2017-07-09T08:54:50.426Z,210
2017-07-09T08:55:30.944Z,200
2017-07-09T08:56:11.481Z,195
2017-07-09T08:56:52.017Z,200
2017-07-09T08:57:32.589Z,200
2017-07-09T08:58:13.124Z,205
2017-07-09T08:58:53.649Z,215
2017-07-09T08:59:34.182Z,225
2017-07-09T09:00:14.704Z,235
2017-07-09T09:00:55.255Z,225
2017-07-09T09:01:35.778Z,220
2017-07-09T09:02:16.317Z,230
2017-07-09T09:02:56.851Z,235
2017-07-09T09:03:37.388Z,255
2017-07-09T09:04:17.912Z,260
2017-07-09T09:04:58.448Z,260
2017-07-09T09:05:38.981Z,250
2017-07-09T09:06:19.532Z,250
2017-07-09T09:07:00.046Z,240
2017-07-09T09:07:40.567Z,235
2017-07-09T09:08:21.101Z,225
2017-07-09T09:09:01.630Z,220
2017-07-09T09:09:42.161Z,220
2017-07-09T09:10:22.684Z,220
2017-07-09T09:11:03.217Z,215
2017-07-09T09:11:43.744Z,220
2017-07-09T09:12:24.291Z,215
2017-07-09T09:13:04.822Z,220
2017-07-09T09:13:45.359Z,225
2017-07-09T09:14:25.898Z,225
2017-07-09T09:15:06.441Z,225
2017-07-09T09:15:46.976Z,225
2017-07-09T09:16:27.507Z,220
2017-07-09T09:17:08.026Z,225
2017-07-09T09:17:48.564Z,220
2017-07-09T09:18:29.089Z,215
2017-07-09T09:19:09.607Z,215
2017-07-09T09:19:50.149Z,215
2017-07-09T09:20:30.698Z,220
2017-07-09T09:21:11.242Z,210
2017-07-09T09:21:53.232Z,210
2017-07-09T09:22:33.745Z,215
2017-07-09T09:23:14.260Z,210
2017-07-09T09:23:54.786Z,215
2017-07-09T09:24:35.315Z,200
2017-07-09T09:25:15.851Z,200
2017-07-09T09:25:56.418Z,190
2017-07-09T09:26:36.936Z,180
2017-07-09T09:27:17.465Z,180
2017-07-09T09:27:58.001Z,175
2017-07-09T09:28:38.533Z,175
2017-07-09T09:29:19.050Z,175
2017-07-09T09:29:59.607Z,180
2017-07-09T09:30:40.109Z,175
2017-07-09T09:31:20.638Z,180
2017-07-09T09:32:01.180Z,180
2017-07-09T09:32:41.689Z,175
2017-07-09T09:33:22.214Z,170
2017-07-09T09:34:02.766Z,170
2017-07-09T09:34:43.298Z,170
2017-07-09T09:35:23.813Z,165
2017-07-09T09:36:04.341Z,165
2017-07-09T09:36:44.867Z,170
2017-07-09T09:37:25.398Z,170
2017-07-09T09:38:05.938Z,170
2017-07-09T09:38:46.447Z,170
2017-07-09T09:39:28.938Z,175
2017-07-09T09:40:09.451Z,170
2017-07-09T09:40:50.018Z,170
2017-07-09T09:41:30.521Z,170
2017-07-09T09:42:11.034Z,170
2017-07-09T09:42:51.568Z,165
2017-07-09T09:43:32.063Z,165
2017-07-09T09:44:12.583Z,165
2017-07-09T09:44:53.135Z,165
2017-07-09T09:45:33.587Z,160
2017-07-09T09:46:14.052Z,160
2017-07-09T09:46:54.612Z,160
2017-07-09T09:47:35.165Z,160
2017-07-09T09:48:15.591Z,160
2017-07-09T09:48:56.104Z,155
2017-07-09T09:49:36.653Z,155
2017-07-09T09:50:17.203Z,155
2017-07-09T09:50:57.755Z,155
2017-07-09T09:51:38.212Z,150
2017-07-09T09:52:18.807Z,145